sensor_id;sensor_type;location;lat;lon;timestamp;temperature;humidity
72919;SHT30;68407;55.694;26.994;2023-04-25T00:01:23;13;54.9
72919;SHT30;68407;55.694;26.994;2023-04-25T00:06:59;12.9;55
72919;SHT30;68407;55.694;26.994;2023-04-25T00:11:13;12.8;55.2
72919;SHT30;68407;55.694;26.994;2023-04-25T00:16:13;12.8;55.3
72919;SHT30;68407;55.694;26.994;2023-04-25T00:21:59;12.7;55.3
72919;SHT30;68407;55.694;26.994;2023-04-25T00:26:39;12.7;55.6
72919;SHT30;68407;55.694;26.994;2023-04-25T00:31:21;12.6;55.8
72919;SHT30;68407;55.694;26.994;2023-04-25T00:36:43;12.6;55.9
72919;SHT30;68407;55.694;26.994;2023-04-25T00:41:59;12.5;56
72919;SHT30;68407;55.694;26.994;2023-04-25T00:46:13;12.4;56.3
72919;SHT30;68407;55.694;26.994;2023-04-25T00:52:01;12.3;56.7
72919;SHT30;68407;55.694;26.994;2023-04-25T00:56:15;12.2;56.8
72919;SHT30;68407;55.694;26.994;2023-04-25T01:02:02;12.1;57.1
72919;SHT30;68407;55.694;26.994;2023-04-25T01:06:35;12;57.3
72919;SHT30;68407;55.694;26.994;2023-04-25T01:11:49;11.9;57.6
72919;SHT30;68407;55.694;26.994;2023-04-25T01:16:59;11.7;58.1
72919;SHT30;68407;55.694;26.994;2023-04-25T01:21:59;11.6;58.4
72919;SHT30;68407;55.694;26.994;2023-04-25T01:27:00;11.4;58.7
72919;SHT30;68407;55.694;26.994;2023-04-25T01:31:59;11.4;58.8
72919;SHT30;68407;55.694;26.994;2023-04-25T01:36:51;11.3;59
72919;SHT30;68407;55.694;26.994;2023-04-25T01:41:23;11.3;59.1
72919;SHT30;68407;55.694;26.994;2023-04-25T01:46:33;11.1;59.6
72919;SHT30;68407;55.694;26.994;2023-04-25T01:52:01;11;60.3
72919;SHT30;68407;55.694;26.994;2023-04-25T01:56:29;11;60.4
72919;SHT30;68407;55.694;26.994;2023-04-25T02:01:49;10.9;61.9
72919;SHT30;68407;55.694;26.994;2023-04-25T02:06:47;10.8;62.8
72919;SHT30;68407;55.694;26.994;2023-04-25T02:11:41;10.8;63
72919;SHT30;68407;55.694;26.994;2023-04-25T02:16:23;10.9;63.3
72919;SHT30;68407;55.694;26.994;2023-04-25T02:21:39;11;63.5
72919;SHT30;68407;55.694;26.994;2023-04-25T02:26:25;11;63
72919;SHT30;68407;55.694;26.994;2023-04-25T02:31:39;11.1;62.7
72919;SHT30;68407;55.694;26.994;2023-04-25T02:36:39;11.2;62.4
72919;SHT30;68407;55.694;26.994;2023-04-25T02:41:47;11.3;63.4
72919;SHT30;68407;55.694;26.994;2023-04-25T02:46:45;11.3;64
72919;SHT30;68407;55.694;26.994;2023-04-25T02:52:01;11.2;64.4
72919;SHT30;68407;55.694;26.994;2023-04-25T02:56:31;11.3;64.2
72919;SHT30;68407;55.694;26.994;2023-04-25T03:01:13;11.2;64.8
72919;SHT30;68407;55.694;26.994;2023-04-25T03:06:25;11.1;64.9
72919;SHT30;68407;55.694;26.994;2023-04-25T03:12:01;11.1;65.1
72919;SHT30;68407;55.694;26.994;2023-04-25T03:16:35;11.2;65.1
72919;SHT30;68407;55.694;26.994;2023-04-25T03:21:48;11.2;65.3
72919;SHT30;68407;55.694;26.994;2023-04-25T03:26:59;11.2;66
72919;SHT30;68407;55.694;26.994;2023-04-25T03:31:25;11.1;65.8
72919;SHT30;68407;55.694;26.994;2023-04-25T03:36:25;11.3;65.5
72919;SHT30;68407;55.694;26.994;2023-04-25T03:41:29;11.5;65.6
72919;SHT30;68407;55.694;26.994;2023-04-25T03:46:59;11.7;65.4
72919;SHT30;68407;55.694;26.994;2023-04-25T03:51:25;11.9;64.4
72919;SHT30;68407;55.694;26.994;2023-04-25T03:56:57;12.1;63.3
72919;SHT30;68407;55.694;26.994;2023-04-25T04:01:57;12.1;62.6
72919;SHT30;68407;55.694;26.994;2023-04-25T04:06:13;12.1;61.9
72919;SHT30;68407;55.694;26.994;2023-04-25T04:11:35;12.2;61.6
72919;SHT30;68407;55.694;26.994;2023-04-25T04:16:50;12.3;61.3
72919;SHT30;68407;55.694;26.994;2023-04-25T04:21:43;12.5;61.2
72919;SHT30;68407;55.694;26.994;2023-04-25T04:26:51;12.8;60
72919;SHT30;68407;55.694;26.994;2023-04-25T04:31:27;13;59.5
72919;SHT30;68407;55.694;26.994;2023-04-25T04:36:45;13.2;58.6
72919;SHT30;68407;55.694;26.994;2023-04-25T04:41:43;13.4;58
72919;SHT30;68407;55.694;26.994;2023-04-25T04:46:13;13.5;57.2
72919;SHT30;68407;55.694;26.994;2023-04-25T04:51:31;13.7;57.2
72919;SHT30;68407;55.694;26.994;2023-04-25T04:56:59;13.8;56.9
72919;SHT30;68407;55.694;26.994;2023-04-25T05:01:36;14;56.9
72919;SHT30;68407;55.694;26.994;2023-04-25T05:06:47;14.1;56.5
72919;SHT30;68407;55.694;26.994;2023-04-25T05:11:15;14.3;56
72919;SHT30;68407;55.694;26.994;2023-04-25T05:16:35;14.5;55.4
72919;SHT30;68407;55.694;26.994;2023-04-25T05:22:01;14.7;54.9
72919;SHT30;68407;55.694;26.994;2023-04-25T05:26:13;15;54.7
72919;SHT30;68407;55.694;26.994;2023-04-25T05:31:13;15.1;54.1
72919;SHT30;68407;55.694;26.994;2023-04-25T05:36:39;15.3;53.8
72919;SHT30;68407;55.694;26.994;2023-04-25T05:41:25;15.5;53.3
72919;SHT30;68407;55.694;26.994;2023-04-25T05:46:13;15.7;52.4
72919;SHT30;68407;55.694;26.994;2023-04-25T05:51:15;15.8;52.3
72919;SHT30;68407;55.694;26.994;2023-04-25T05:56:59;16.1;51.7
72919;SHT30;68407;55.694;26.994;2023-04-25T06:01:13;16.4;51
72919;SHT30;68407;55.694;26.994;2023-04-25T06:06:23;16.5;51.3
72919;SHT30;68407;55.694;26.994;2023-04-25T06:11:41;16.8;51.1
72919;SHT30;68407;55.694;26.994;2023-04-25T06:16:59;17;51.3
72919;SHT30;68407;55.694;26.994;2023-04-25T06:21:35;17.4;51.2
72919;SHT30;68407;55.694;26.994;2023-04-25T06:26:19;17.8;51.4
72919;SHT30;68407;55.694;26.994;2023-04-25T06:31:59;18;50.8
72919;SHT30;68407;55.694;26.994;2023-04-25T06:36:13;17.9;51.6
72919;SHT30;68407;55.694;26.994;2023-04-25T06:41:37;18.3;51.1
72919;SHT30;68407;55.694;26.994;2023-04-25T06:46:31;18.3;51.3
72919;SHT30;68407;55.694;26.994;2023-04-25T06:51:57;18.5;49.3
72919;SHT30;68407;55.694;26.994;2023-04-25T06:56:13;18.7;50.2
72919;SHT30;68407;55.694;26.994;2023-04-25T07:01:57;19;50.9
72919;SHT30;68407;55.694;26.994;2023-04-25T07:07:01;19.3;49
72919;SHT30;68407;55.694;26.994;2023-04-25T07:11:35;19.4;48.5
72919;SHT30;68407;55.694;26.994;2023-04-25T07:16:23;19.7;47.6
72919;SHT30;68407;55.694;26.994;2023-04-25T07:22:01;19.7;46.6
72919;SHT30;68407;55.694;26.994;2023-04-25T07:26:35;19.8;47
72919;SHT30;68407;55.694;26.994;2023-04-25T07:31:51;20.1;46.5
72919;SHT30;68407;55.694;26.994;2023-04-25T07:36:39;20.2;46.2
72919;SHT30;68407;55.694;26.994;2023-04-25T07:42:01;20.3;46.5
72919;SHT30;68407;55.694;26.994;2023-04-25T07:46:37;20.1;44.6
72919;SHT30;68407;55.694;26.994;2023-04-25T07:51:13;20.1;44.7
72919;SHT30;68407;55.694;26.994;2023-04-25T07:56:31;20.1;43.3
72919;SHT30;68407;55.694;26.994;2023-04-25T08:02:00;20.2;43.7
72919;SHT30;68407;55.694;26.994;2023-04-25T08:06:23;20.3;43.9
72919;SHT30;68407;55.694;26.994;2023-04-25T08:11:47;20.3;43.7
72919;SHT30;68407;55.694;26.994;2023-04-25T08:16:47;20.2;43.8
72919;SHT30;68407;55.694;26.994;2023-04-25T08:21:13;20.3;43.8
72919;SHT30;68407;55.694;26.994;2023-04-25T08:26:33;20.5;43.2
72919;SHT30;68407;55.694;26.994;2023-04-25T08:31:13;20.6;43
72919;SHT30;68407;55.694;26.994;2023-04-25T08:36:25;20.9;42.8
72919;SHT30;68407;55.694;26.994;2023-04-25T08:41:52;20.8;42.7
72919;SHT30;68407;55.694;26.994;2023-04-25T08:46:41;20.8;42.8
72919;SHT30;68407;55.694;26.994;2023-04-25T08:51:28;20.8;42.8
72919;SHT30;68407;55.694;26.994;2023-04-25T08:56:45;20.9;43.4
72919;SHT30;68407;55.694;26.994;2023-04-25T09:01:51;21.1;42.8
72919;SHT30;68407;55.694;26.994;2023-04-25T09:06:47;21.3;42.7
72919;SHT30;68407;55.694;26.994;2023-04-25T09:11:34;21.5;42.3
72919;SHT30;68407;55.694;26.994;2023-04-25T09:17:02;21.4;42.5
72919;SHT30;68407;55.694;26.994;2023-04-25T09:22:00;20.5;43
72919;SHT30;68407;55.694;26.994;2023-04-25T09:26:59;20.2;43.9
72919;SHT30;68407;55.694;26.994;2023-04-25T09:31:37;20.1;44.4
72919;SHT30;68407;55.694;26.994;2023-04-25T09:36:53;19.8;44.3
72919;SHT30;68407;55.694;26.994;2023-04-25T09:41:37;19.4;46.7
72919;SHT30;68407;55.694;26.994;2023-04-25T09:46:19;19;51
72919;SHT30;68407;55.694;26.994;2023-04-25T09:51:13;19.1;49.7
72919;SHT30;68407;55.694;26.994;2023-04-25T09:57:00;18.8;49.4
72919;SHT30;68407;55.694;26.994;2023-04-25T10:01:25;18.3;51.6
72919;SHT30;68407;55.694;26.994;2023-04-25T10:06:59;17.9;56.7
72919;SHT30;68407;55.694;26.994;2023-04-25T10:11:59;18.2;57.2
72919;SHT30;68407;55.694;26.994;2023-04-25T10:16:13;18.5;54.2
72919;SHT30;68407;55.694;26.994;2023-04-25T10:21:36;18.7;52.4
72919;SHT30;68407;55.694;26.994;2023-04-25T10:26:38;18.7;51.4
72919;SHT30;68407;55.694;26.994;2023-04-25T10:31:46;18.4;50.4
72919;SHT30;68407;55.694;26.994;2023-04-25T10:36:52;17.9;51.6
72919;SHT30;68407;55.694;26.994;2023-04-25T10:41:52;17.6;53.8
72919;SHT30;68407;55.694;26.994;2023-04-25T10:47:00;17.6;53.7
72919;SHT30;68407;55.694;26.994;2023-04-25T10:51:45;18.1;52.8
72919;SHT30;68407;55.694;26.994;2023-04-25T10:56:26;18.1;52
72919;SHT30;68407;55.694;26.994;2023-04-25T11:01:35;17.7;52.9
72919;SHT30;68407;55.694;26.994;2023-04-25T11:07:06;17.4;53.3
72919;SHT30;68407;55.694;26.994;2023-04-25T11:11:21;17.7;53.1
72919;SHT30;68407;55.694;26.994;2023-04-25T11:16:52;18.3;52.6
72919;SHT30;68407;55.694;26.994;2023-04-25T11:21:47;18.2;52.6
72919;SHT30;68407;55.694;26.994;2023-04-25T11:26:13;18.3;52.6
72919;SHT30;68407;55.694;26.994;2023-04-25T11:31:45;18.6;52
72919;SHT30;68407;55.694;26.994;2023-04-25T11:36:47;18.6;52.8
72919;SHT30;68407;55.694;26.994;2023-04-25T11:41:25;19.2;52.6
72919;SHT30;68407;55.694;26.994;2023-04-25T11:46:51;19.9;50.8
72919;SHT30;68407;55.694;26.994;2023-04-25T11:51:59;19.9;49.7
72919;SHT30;68407;55.694;26.994;2023-04-25T11:56:25;20.1;49.1
72919;SHT30;68407;55.694;26.994;2023-04-25T12:01:47;20.3;48.6
72919;SHT30;68407;55.694;26.994;2023-04-25T12:06:28;20.5;48.4
72919;SHT30;68407;55.694;26.994;2023-04-25T12:11:48;20;48.4
72919;SHT30;68407;55.694;26.994;2023-04-25T12:16:39;20.3;48.4
72919;SHT30;68407;55.694;26.994;2023-04-25T12:21:15;20.2;47.4
72919;SHT30;68407;55.694;26.994;2023-04-25T12:27:02;20.3;47.9
72919;SHT30;68407;55.694;26.994;2023-04-25T12:32:01;20.7;47
72919;SHT30;68407;55.694;26.994;2023-04-25T12:36:25;21.1;47
72919;SHT30;68407;55.694;26.994;2023-04-25T12:41:59;20.6;46.6
72919;SHT30;68407;55.694;26.994;2023-04-25T12:46:51;20.8;47.1
72919;SHT30;68407;55.694;26.994;2023-04-25T12:51:25;21.2;46.5
72919;SHT30;68407;55.694;26.994;2023-04-25T12:56:32;21.7;45.8
72919;SHT30;68407;55.694;26.994;2023-04-25T13:01:59;21.8;45.5
72919;SHT30;68407;55.694;26.994;2023-04-25T13:06:14;21.7;44.9
72919;SHT30;68407;55.694;26.994;2023-04-25T13:11:47;21.3;44.7
72919;SHT30;68407;55.694;26.994;2023-04-25T13:17:00;20.9;45.1
72919;SHT30;68407;55.694;26.994;2023-04-25T13:21:44;20.7;44.9
72919;SHT30;68407;55.694;26.994;2023-04-25T13:26:24;20.9;44.7
72919;SHT30;68407;55.694;26.994;2023-04-25T13:31:26;20.8;45.2
72919;SHT30;68407;55.694;26.994;2023-04-25T13:36:14;20.7;45.4
72919;SHT30;68407;55.694;26.994;2023-04-25T13:41:52;21;45.6
72919;SHT30;68407;55.694;26.994;2023-04-25T13:46:14;21.3;45
72919;SHT30;68407;55.694;26.994;2023-04-25T13:51:32;20.5;47
72919;SHT30;68407;55.694;26.994;2023-04-25T13:56:44;20.1;53.8
72919;SHT30;68407;55.694;26.994;2023-04-25T14:01:14;20.1;55.8
72919;SHT30;68407;55.694;26.994;2023-04-25T14:06:32;19.6;55
72919;SHT30;68407;55.694;26.994;2023-04-25T14:11:58;19.3;53.8
72919;SHT30;68407;55.694;26.994;2023-04-25T14:16:14;19.1;53.5
72919;SHT30;68407;55.694;26.994;2023-04-25T14:21:48;18.9;52.4
72919;SHT30;68407;55.694;26.994;2023-04-25T14:26:46;18.8;52.2
72919;SHT30;68407;55.694;26.994;2023-04-25T14:31:24;19.3;51.8
72919;SHT30;68407;55.694;26.994;2023-04-25T14:37:00;19.5;49.1
72919;SHT30;68407;55.694;26.994;2023-04-25T14:41:14;19.3;48.3
72919;SHT30;68407;55.694;26.994;2023-04-25T14:46:14;19;48.6
72919;SHT30;68407;55.694;26.994;2023-04-25T14:51:52;18.8;48.4
72919;SHT30;68407;55.694;26.994;2023-04-25T14:57:02;18.7;48.8
72919;SHT30;68407;55.694;26.994;2023-04-25T15:01:24;18.6;48.9
72919;SHT30;68407;55.694;26.994;2023-04-25T15:06:44;18.4;49.9
72919;SHT30;68407;55.694;26.994;2023-04-25T15:12:02;17.7;52.2
72919;SHT30;68407;55.694;26.994;2023-04-25T15:16:40;17.1;54.1
72919;SHT30;68407;55.694;26.994;2023-04-25T15:21:36;16.6;55.9
72919;SHT30;68407;55.694;26.994;2023-04-25T15:26:50;16.3;58.1
72919;SHT30;68407;55.694;26.994;2023-04-25T15:32:02;16.1;58.8
72919;SHT30;68407;55.694;26.994;2023-04-25T15:36:52;15.9;59.7
72919;SHT30;68407;55.694;26.994;2023-04-25T15:41:14;15.9;59.8
72919;SHT30;68407;55.694;26.994;2023-04-25T15:47:00;15.9;61
72919;SHT30;68407;55.694;26.994;2023-04-25T15:51:52;15.7;63.5
72919;SHT30;68407;55.694;26.994;2023-04-25T15:56:40;15.3;65.2
72919;SHT30;68407;55.694;26.994;2023-04-25T16:01:14;15;66.2
72919;SHT30;68407;55.694;26.994;2023-04-25T16:07:00;15;65.9
72919;SHT30;68407;55.694;26.994;2023-04-25T16:11:26;15.1;65.8
72919;SHT30;68407;55.694;26.994;2023-04-25T16:16:46;15.1;66.2
72919;SHT30;68407;55.694;26.994;2023-04-25T16:21:58;15.1;66.1
72919;SHT30;68407;55.694;26.994;2023-04-25T16:26:24;15.2;66.3
72919;SHT30;68407;55.694;26.994;2023-04-25T16:31:22;15.2;67.1
72919;SHT30;68407;55.694;26.994;2023-04-25T16:36:26;15.2;67.4
72919;SHT30;68407;55.694;26.994;2023-04-25T16:41:14;15.1;68.7
72919;SHT30;68407;55.694;26.994;2023-04-25T16:46:44;15.1;69.3
72919;SHT30;68407;55.694;26.994;2023-04-25T16:51:40;15.4;69.2
72919;SHT30;68407;55.694;26.994;2023-04-25T16:56:32;15.6;69.2
72919;SHT30;68407;55.694;26.994;2023-04-25T17:01:44;15.4;70.2
72919;SHT30;68407;55.694;26.994;2023-04-25T17:07:00;15.2;71.8
72919;SHT30;68407;55.694;26.994;2023-04-25T17:11:44;15;72.4
72919;SHT30;68407;55.694;26.994;2023-04-25T17:16:36;14.8;72.7
72919;SHT30;68407;55.694;26.994;2023-04-25T17:21:36;14.6;72.5
72919;SHT30;68407;55.694;26.994;2023-04-25T17:27:00;14.4;72.4
72919;SHT30;68407;55.694;26.994;2023-04-25T17:31:14;14.1;73
72919;SHT30;68407;55.694;26.994;2023-04-25T17:36:26;13.8;74.5
72919;SHT30;68407;55.694;26.994;2023-04-25T17:42:00;13.6;75.7
72919;SHT30;68407;55.694;26.994;2023-04-25T17:46:38;13.6;75.6
72919;SHT30;68407;55.694;26.994;2023-04-25T17:51:20;13.4;76.1
72919;SHT30;68407;55.694;26.994;2023-04-25T17:56:32;13.3;76.3
72919;SHT30;68407;55.694;26.994;2023-04-25T18:01:59;13.2;76.5
72919;SHT30;68407;55.694;26.994;2023-04-25T18:06:28;13;76.8
72919;SHT30;68407;55.694;26.994;2023-04-25T18:12:00;12.9;77.4
72919;SHT30;68407;55.694;26.994;2023-04-25T18:16:40;12.8;77.7
72919;SHT30;68407;55.694;26.994;2023-04-25T18:21:48;12.8;77.8
72919;SHT30;68407;55.694;26.994;2023-04-25T18:26:36;12.7;77.8
72919;SHT30;68407;55.694;26.994;2023-04-25T18:31:22;12.6;77.9
72919;SHT30;68407;55.694;26.994;2023-04-25T18:37:00;12.6;77.4
72919;SHT30;68407;55.694;26.994;2023-04-25T18:42:00;12.7;76.7
72919;SHT30;68407;55.694;26.994;2023-04-25T18:47:00;12.7;76.6
72919;SHT30;68407;55.694;26.994;2023-04-25T18:52:00;12.5;77.3
72919;SHT30;68407;55.694;26.994;2023-04-25T18:56:42;12.5;77.3
72919;SHT30;68407;55.694;26.994;2023-04-25T19:01:52;12.3;77.5
72919;SHT30;68407;55.694;26.994;2023-04-25T19:06:32;12.4;77.3
72919;SHT30;68407;55.694;26.994;2023-04-25T19:12:00;12.4;77
72919;SHT30;68407;55.694;26.994;2023-04-25T19:16:24;12.4;76.5
72919;SHT30;68407;55.694;26.994;2023-04-25T19:21:48;12.4;77.5
72919;SHT30;68407;55.694;26.994;2023-04-25T19:27:00;12.4;77.3
72919;SHT30;68407;55.694;26.994;2023-04-25T19:31:15;12.4;77.4
72919;SHT30;68407;55.694;26.994;2023-04-25T19:36:53;12.4;77.6
72919;SHT30;68407;55.694;26.994;2023-04-25T19:41:38;12.3;77.7
72919;SHT30;68407;55.694;26.994;2023-04-25T19:46:20;12.4;76.8
72919;SHT30;68407;55.694;26.994;2023-04-25T19:51:52;12.4;76.9
72919;SHT30;68407;55.694;26.994;2023-04-25T19:56:40;12.3;77.2
72919;SHT30;68407;55.694;26.994;2023-04-25T20:01:32;12.3;77.2
72919;SHT30;68407;55.694;26.994;2023-04-25T20:06:38;12.1;77.6
72919;SHT30;68407;55.694;26.994;2023-04-25T20:12:00;12;77.9
72919;SHT30;68407;55.694;26.994;2023-04-25T20:16:14;11.9;77.5
72919;SHT30;68407;55.694;26.994;2023-04-25T20:21:34;12;77
72919;SHT30;68407;55.694;26.994;2023-04-25T20:26:34;11.9;77
72919;SHT30;68407;55.694;26.994;2023-04-25T20:32:00;11.9;77.3
72919;SHT30;68407;55.694;26.994;2023-04-25T20:36:14;12;77.1
72919;SHT30;68407;55.694;26.994;2023-04-25T20:41:20;12.1;76.7
72919;SHT30;68407;55.694;26.994;2023-04-25T20:47:00;12.1;77.2
72919;SHT30;68407;55.694;26.994;2023-04-25T20:51:38;12.2;77
72919;SHT30;68407;55.694;26.994;2023-04-25T20:56:26;12.2;76.2
72919;SHT30;68407;55.694;26.994;2023-04-25T21:01:32;12.2;75.7
72919;SHT30;68407;55.694;26.994;2023-04-25T21:07:02;12.3;75.2
72919;SHT30;68407;55.694;26.994;2023-04-25T21:11:40;12.4;74.9
72919;SHT30;68407;55.694;26.994;2023-04-25T21:17:00;12.5;73.8
72919;SHT30;68407;55.694;26.994;2023-04-25T21:22:00;12.6;72.7
72919;SHT30;68407;55.694;26.994;2023-04-25T21:26:26;12.8;72.3
72919;SHT30;68407;55.694;26.994;2023-04-25T21:31:36;12.9;72.8
72919;SHT30;68407;55.694;26.994;2023-04-25T21:36:48;12.9;72.4
72919;SHT30;68407;55.694;26.994;2023-04-25T21:41:22;13.1;72
72919;SHT30;68407;55.694;26.994;2023-04-25T21:46:52;13;72.3
72919;SHT30;68407;55.694;26.994;2023-04-25T21:51:40;13;72.4
72919;SHT30;68407;55.694;26.994;2023-04-25T21:57:00;13;72.3
72919;SHT30;68407;55.694;26.994;2023-04-25T22:01:38;13.1;71.8
72919;SHT30;68407;55.694;26.994;2023-04-25T22:06:14;13.2;71.3
72919;SHT30;68407;55.694;26.994;2023-04-25T22:11:14;13.3;71.6
72919;SHT30;68407;55.694;26.994;2023-04-25T22:17:00;13.2;73.2
72919;SHT30;68407;55.694;26.994;2023-04-25T22:21:26;13.2;73.7
72919;SHT30;68407;55.694;26.994;2023-04-25T22:26:48;13;75
72919;SHT30;68407;55.694;26.994;2023-04-25T22:31:48;12.8;75.7
72919;SHT30;68407;55.694;26.994;2023-04-25T22:36:36;12.7;75.8
72919;SHT30;68407;55.694;26.994;2023-04-25T22:41:44;12.6;76.5
72919;SHT30;68407;55.694;26.994;2023-04-25T22:46:40;12.6;77.2
72919;SHT30;68407;55.694;26.994;2023-04-25T22:51:32;12.5;77
72919;SHT30;68407;55.694;26.994;2023-04-25T22:56:52;12.4;77.1
72919;SHT30;68407;55.694;26.994;2023-04-25T23:01:58;12.3;76.7
72919;SHT30;68407;55.694;26.994;2023-04-25T23:06:14;12.3;76
72919;SHT30;68407;55.694;26.994;2023-04-25T23:11:42;12.2;76.7
72919;SHT30;68407;55.694;26.994;2023-04-25T23:16:58;12;77.4
72919;SHT30;68407;55.694;26.994;2023-04-25T23:21:16;11.9;77.4
72919;SHT30;68407;55.694;26.994;2023-04-25T23:26:24;11.8;77.5
72919;SHT30;68407;55.694;26.994;2023-04-25T23:31:48;11.6;77.7
72919;SHT30;68407;55.694;26.994;2023-04-25T23:37:00;11.5;78
72919;SHT30;68407;55.694;26.994;2023-04-25T23:41:58;11.5;78.1
72919;SHT30;68407;55.694;26.994;2023-04-25T23:46:14;11.2;78.9
72919;SHT30;68407;55.694;26.994;2023-04-25T23:51:56;11.1;79.3
72919;SHT30;68407;55.694;26.994;2023-04-25T23:56:26;11;79.2
